sensor_id;sensor_type;location;lat;lon;timestamp;P1;durP1;ratioP1;P2;durP2;ratioP2
16737;SDS011;17906;47.684;10.806;2023-09-30T00:00:17;27.25;;;10.30;;
16737;SDS011;17906;47.684;10.806;2023-09-30T00:02:43;23.60;;;10.32;;
16737;SDS011;17906;47.684;10.806;2023-09-30T00:05:09;29.05;;;11.43;;
16737;SDS011;17906;47.684;10.806;2023-09-30T00:07:36;32.67;;;11.13;;
16737;SDS011;17906;47.684;10.806;2023-09-30T00:10:03;31.60;;;11.57;;
16737;SDS011;17906;47.684;10.806;2023-09-30T00:12:29;28.75;;;10.85;;
16737;SDS011;17906;47.684;10.806;2023-09-30T00:14:57;28.45;;;11.13;;
16737;SDS011;17906;47.684;10.806;2023-09-30T00:17:23;27.38;;;10.50;;
16737;SDS011;17906;47.684;10.806;2023-09-30T00:19:50;31.95;;;11.95;;
16737;SDS011;17906;47.684;10.806;2023-09-30T00:22:16;29.17;;;11.25;;
16737;SDS011;17906;47.684;10.806;2023-09-30T00:24:42;28.40;;;11.55;;
16737;SDS011;17906;47.684;10.806;2023-09-30T00:27:09;28.45;;;11.15;;
16737;SDS011;17906;47.684;10.806;2023-09-30T00:29:35;28.30;;;11.05;;
16737;SDS011;17906;47.684;10.806;2023-09-30T00:32:03;28.27;;;11.75;;
16737;SDS011;17906;47.684;10.806;2023-09-30T00:34:31;25.85;;;10.63;;
16737;SDS011;17906;47.684;10.806;2023-09-30T00:36:58;25.27;;;10.85;;
16737;SDS011;17906;47.684;10.806;2023-09-30T00:39:24;30.63;;;11.77;;
16737;SDS011;17906;47.684;10.806;2023-09-30T00:41:54;26.60;;;10.70;;
16737;SDS011;17906;47.684;10.806;2023-09-30T00:44:21;26.83;;;10.60;;
16737;SDS011;17906;47.684;10.806;2023-09-30T00:46:47;28.70;;;11.40;;
16737;SDS011;17906;47.684;10.806;2023-09-30T00:49:15;26.73;;;11.45;;
16737;SDS011;17906;47.684;10.806;2023-09-30T00:51:43;26.35;;;10.73;;
16737;SDS011;17906;47.684;10.806;2023-09-30T00:54:10;27.20;;;10.95;;
16737;SDS011;17906;47.684;10.806;2023-09-30T00:56:36;28.67;;;11.55;;
16737;SDS011;17906;47.684;10.806;2023-09-30T00:59:06;26.98;;;10.40;;
16737;SDS011;17906;47.684;10.806;2023-09-30T01:01:32;27.48;;;11.35;;
16737;SDS011;17906;47.684;10.806;2023-09-30T01:03:59;27.80;;;10.88;;
16737;SDS011;17906;47.684;10.806;2023-09-30T01:06:27;29.65;;;11.40;;
16737;SDS011;17906;47.684;10.806;2023-09-30T01:08:54;32.00;;;11.32;;
16737;SDS011;17906;47.684;10.806;2023-09-30T01:11:20;35.20;;;11.38;;
16737;SDS011;17906;47.684;10.806;2023-09-30T01:13:47;27.05;;;10.70;;
16737;SDS011;17906;47.684;10.806;2023-09-30T01:16:14;26.35;;;10.20;;
16737;SDS011;17906;47.684;10.806;2023-09-30T01:18:41;29.83;;;10.93;;
16737;SDS011;17906;47.684;10.806;2023-09-30T01:21:08;26.23;;;11.27;;
16737;SDS011;17906;47.684;10.806;2023-09-30T01:23:36;27.75;;;10.73;;
16737;SDS011;17906;47.684;10.806;2023-09-30T01:26:03;27.10;;;10.32;;
16737;SDS011;17906;47.684;10.806;2023-09-30T01:28:30;25.10;;;10.07;;
16737;SDS011;17906;47.684;10.806;2023-09-30T01:30:56;25.02;;;10.38;;
16737;SDS011;17906;47.684;10.806;2023-09-30T01:33:23;27.52;;;9.52;;
16737;SDS011;17906;47.684;10.806;2023-09-30T01:35:49;30.15;;;11.23;;
16737;SDS011;17906;47.684;10.806;2023-09-30T01:38:16;26.90;;;10.43;;
16737;SDS011;17906;47.684;10.806;2023-09-30T01:40:43;26.83;;;10.23;;
16737;SDS011;17906;47.684;10.806;2023-09-30T01:43:10;27.67;;;10.82;;
16737;SDS011;17906;47.684;10.806;2023-09-30T01:45:38;26.52;;;10.52;;
16737;SDS011;17906;47.684;10.806;2023-09-30T01:48:05;25.27;;;10.93;;
16737;SDS011;17906;47.684;10.806;2023-09-30T01:50:32;26.45;;;10.85;;
16737;SDS011;17906;47.684;10.806;2023-09-30T01:52:58;26.73;;;10.73;;
16737;SDS011;17906;47.684;10.806;2023-09-30T01:55:24;28.75;;;11.30;;
16737;SDS011;17906;47.684;10.806;2023-09-30T01:57:52;25.25;;;9.95;;
16737;SDS011;17906;47.684;10.806;2023-09-30T02:00:18;25.92;;;11.05;;
16737;SDS011;17906;47.684;10.806;2023-09-30T02:02:45;24.85;;;10.52;;
16737;SDS011;17906;47.684;10.806;2023-09-30T02:05:11;30.27;;;12.00;;
16737;SDS011;17906;47.684;10.806;2023-09-30T02:07:38;29.13;;;10.75;;
16737;SDS011;17906;47.684;10.806;2023-09-30T02:10:05;26.88;;;10.35;;
16737;SDS011;17906;47.684;10.806;2023-09-30T02:12:32;28.58;;;11.48;;
16737;SDS011;17906;47.684;10.806;2023-09-30T02:15:00;26.20;;;10.32;;
16737;SDS011;17906;47.684;10.806;2023-09-30T02:17:27;24.38;;;10.13;;
16737;SDS011;17906;47.684;10.806;2023-09-30T02:19:54;29.85;;;10.77;;
16737;SDS011;17906;47.684;10.806;2023-09-30T02:22:21;27.35;;;10.20;;
16737;SDS011;17906;47.684;10.806;2023-09-30T02:24:48;33.75;;;11.13;;
16737;SDS011;17906;47.684;10.806;2023-09-30T02:27:15;24.17;;;9.73;;
16737;SDS011;17906;47.684;10.806;2023-09-30T02:29:41;26.25;;;9.60;;
16737;SDS011;17906;47.684;10.806;2023-09-30T02:32:09;30.88;;;11.73;;
16737;SDS011;17906;47.684;10.806;2023-09-30T02:34:36;24.92;;;10.75;;
16737;SDS011;17906;47.684;10.806;2023-09-30T02:37:03;23.65;;;10.35;;
16737;SDS011;17906;47.684;10.806;2023-09-30T02:39:29;29.65;;;11.02;;
16737;SDS011;17906;47.684;10.806;2023-09-30T02:41:55;27.50;;;10.93;;
16737;SDS011;17906;47.684;10.806;2023-09-30T02:44:22;29.38;;;11.18;;
16737;SDS011;17906;47.684;10.806;2023-09-30T02:46:48;29.20;;;11.68;;
16737;SDS011;17906;47.684;10.806;2023-09-30T02:49:16;26.02;;;10.80;;
16737;SDS011;17906;47.684;10.806;2023-09-30T02:51:42;27.90;;;10.77;;
16737;SDS011;17906;47.684;10.806;2023-09-30T02:54:09;25.40;;;10.55;;
16737;SDS011;17906;47.684;10.806;2023-09-30T02:56:40;21.48;;;9.50;;
16737;SDS011;17906;47.684;10.806;2023-09-30T02:59:06;24.73;;;9.35;;
16737;SDS011;17906;47.684;10.806;2023-09-30T03:01:33;25.83;;;9.65;;
16737;SDS011;17906;47.684;10.806;2023-09-30T03:04:00;25.60;;;10.40;;
16737;SDS011;17906;47.684;10.806;2023-09-30T03:06:27;26.15;;;9.85;;
16737;SDS011;17906;47.684;10.806;2023-09-30T03:08:53;25.95;;;9.98;;
16737;SDS011;17906;47.684;10.806;2023-09-30T03:11:20;22.88;;;9.88;;
16737;SDS011;17906;47.684;10.806;2023-09-30T03:13:46;25.00;;;10.00;;
16737;SDS011;17906;47.684;10.806;2023-09-30T03:16:13;25.52;;;10.00;;
16737;SDS011;17906;47.684;10.806;2023-09-30T03:18:39;26.00;;;9.98;;
16737;SDS011;17906;47.684;10.806;2023-09-30T03:21:13;25.05;;;10.05;;
16737;SDS011;17906;47.684;10.806;2023-09-30T03:23:42;26.65;;;10.23;;
16737;SDS011;17906;47.684;10.806;2023-09-30T03:26:08;28.40;;;10.25;;
16737;SDS011;17906;47.684;10.806;2023-09-30T03:28:35;27.15;;;10.02;;
16737;SDS011;17906;47.684;10.806;2023-09-30T03:31:01;23.13;;;9.55;;
16737;SDS011;17906;47.684;10.806;2023-09-30T03:33:29;23.92;;;9.80;;
16737;SDS011;17906;47.684;10.806;2023-09-30T03:35:56;24.98;;;9.95;;
16737;SDS011;17906;47.684;10.806;2023-09-30T03:38:23;25.60;;;10.18;;
16737;SDS011;17906;47.684;10.806;2023-09-30T03:40:52;25.40;;;9.80;;
16737;SDS011;17906;47.684;10.806;2023-09-30T03:43:19;25.27;;;9.70;;
16737;SDS011;17906;47.684;10.806;2023-09-30T03:45:46;25.45;;;9.77;;
16737;SDS011;17906;47.684;10.806;2023-09-30T03:48:12;22.80;;;8.63;;
16737;SDS011;17906;47.684;10.806;2023-09-30T03:50:39;27.20;;;10.75;;
16737;SDS011;17906;47.684;10.806;2023-09-30T03:53:05;23.02;;;9.70;;
16737;SDS011;17906;47.684;10.806;2023-09-30T03:55:32;21.92;;;9.10;;
16737;SDS011;17906;47.684;10.806;2023-09-30T03:58:00;22.00;;;9.63;;
16737;SDS011;17906;47.684;10.806;2023-09-30T04:00:28;27.17;;;10.30;;
16737;SDS011;17906;47.684;10.806;2023-09-30T04:02:54;22.33;;;9.38;;
16737;SDS011;17906;47.684;10.806;2023-09-30T04:05:23;25.30;;;10.10;;
16737;SDS011;17906;47.684;10.806;2023-09-30T04:07:53;21.23;;;9.60;;
16737;SDS011;17906;47.684;10.806;2023-09-30T04:10:20;24.73;;;10.07;;
16737;SDS011;17906;47.684;10.806;2023-09-30T04:12:47;22.40;;;9.25;;
16737;SDS011;17906;47.684;10.806;2023-09-30T04:15:15;27.20;;;10.23;;
16737;SDS011;17906;47.684;10.806;2023-09-30T04:17:42;22.73;;;9.60;;
16737;SDS011;17906;47.684;10.806;2023-09-30T04:20:08;26.48;;;9.68;;
16737;SDS011;17906;47.684;10.806;2023-09-30T04:22:41;25.38;;;9.82;;
16737;SDS011;17906;47.684;10.806;2023-09-30T04:25:08;22.15;;;9.73;;
16737;SDS011;17906;47.684;10.806;2023-09-30T04:27:35;21.77;;;9.48;;
16737;SDS011;17906;47.684;10.806;2023-09-30T04:30:02;24.05;;;9.85;;
16737;SDS011;17906;47.684;10.806;2023-09-30T04:32:35;24.25;;;9.93;;
16737;SDS011;17906;47.684;10.806;2023-09-30T04:35:02;23.25;;;10.05;;
16737;SDS011;17906;47.684;10.806;2023-09-30T04:37:28;26.70;;;10.00;;
16737;SDS011;17906;47.684;10.806;2023-09-30T04:39:54;22.23;;;9.38;;
16737;SDS011;17906;47.684;10.806;2023-09-30T04:42:21;24.90;;;9.75;;
16737;SDS011;17906;47.684;10.806;2023-09-30T04:44:50;23.17;;;9.05;;
16737;SDS011;17906;47.684;10.806;2023-09-30T04:47:16;22.02;;;9.40;;
16737;SDS011;17906;47.684;10.806;2023-09-30T04:49:45;19.45;;;9.20;;
16737;SDS011;17906;47.684;10.806;2023-09-30T04:52:11;22.23;;;8.98;;
16737;SDS011;17906;47.684;10.806;2023-09-30T04:54:37;21.48;;;8.80;;
16737;SDS011;17906;47.684;10.806;2023-09-30T04:57:04;23.73;;;9.82;;
16737;SDS011;17906;47.684;10.806;2023-09-30T04:59:32;21.60;;;9.30;;
16737;SDS011;17906;47.684;10.806;2023-09-30T05:01:59;24.42;;;9.80;;
16737;SDS011;17906;47.684;10.806;2023-09-30T05:04:25;22.48;;;9.13;;
16737;SDS011;17906;47.684;10.806;2023-09-30T05:06:53;20.67;;;9.20;;
16737;SDS011;17906;47.684;10.806;2023-09-30T05:09:20;26.45;;;10.35;;
16737;SDS011;17906;47.684;10.806;2023-09-30T05:11:46;25.52;;;9.23;;
16737;SDS011;17906;47.684;10.806;2023-09-30T05:14:13;19.00;;;8.55;;
16737;SDS011;17906;47.684;10.806;2023-09-30T05:16:41;20.70;;;9.00;;
16737;SDS011;17906;47.684;10.806;2023-09-30T05:19:08;21.70;;;9.15;;
16737;SDS011;17906;47.684;10.806;2023-09-30T05:21:35;23.60;;;9.15;;
16737;SDS011;17906;47.684;10.806;2023-09-30T05:24:03;22.92;;;8.77;;
16737;SDS011;17906;47.684;10.806;2023-09-30T05:26:30;22.13;;;9.15;;
16737;SDS011;17906;47.684;10.806;2023-09-30T05:28:57;22.50;;;9.05;;
16737;SDS011;17906;47.684;10.806;2023-09-30T05:31:24;22.95;;;9.27;;
16737;SDS011;17906;47.684;10.806;2023-09-30T05:33:50;19.23;;;8.75;;
16737;SDS011;17906;47.684;10.806;2023-09-30T05:36:17;20.40;;;8.68;;
16737;SDS011;17906;47.684;10.806;2023-09-30T05:38:45;18.42;;;8.43;;
16737;SDS011;17906;47.684;10.806;2023-09-30T05:41:15;24.98;;;9.55;;
16737;SDS011;17906;47.684;10.806;2023-09-30T05:43:41;22.00;;;9.30;;
16737;SDS011;17906;47.684;10.806;2023-09-30T05:46:08;22.55;;;9.63;;
16737;SDS011;17906;47.684;10.806;2023-09-30T05:48:35;22.52;;;9.57;;
16737;SDS011;17906;47.684;10.806;2023-09-30T05:51:04;23.55;;;9.75;;
16737;SDS011;17906;47.684;10.806;2023-09-30T05:53:31;22.52;;;9.18;;
16737;SDS011;17906;47.684;10.806;2023-09-30T05:55:57;24.15;;;8.70;;
16737;SDS011;17906;47.684;10.806;2023-09-30T05:58:26;22.50;;;9.70;;
16737;SDS011;17906;47.684;10.806;2023-09-30T06:00:52;25.33;;;9.20;;
16737;SDS011;17906;47.684;10.806;2023-09-30T06:03:19;24.52;;;9.93;;
16737;SDS011;17906;47.684;10.806;2023-09-30T06:05:46;26.98;;;10.07;;
16737;SDS011;17906;47.684;10.806;2023-09-30T06:08:13;22.15;;;8.88;;
16737;SDS011;17906;47.684;10.806;2023-09-30T06:10:40;26.63;;;10.23;;
16737;SDS011;17906;47.684;10.806;2023-09-30T06:13:08;25.50;;;9.80;;
16737;SDS011;17906;47.684;10.806;2023-09-30T06:15:38;19.88;;;8.48;;
16737;SDS011;17906;47.684;10.806;2023-09-30T06:18:06;24.30;;;9.55;;
16737;SDS011;17906;47.684;10.806;2023-09-30T06:20:34;25.98;;;9.35;;
16737;SDS011;17906;47.684;10.806;2023-09-30T06:23:01;27.77;;;9.88;;
16737;SDS011;17906;47.684;10.806;2023-09-30T06:25:28;25.73;;;9.68;;
16737;SDS011;17906;47.684;10.806;2023-09-30T06:27:55;22.00;;;8.95;;
16737;SDS011;17906;47.684;10.806;2023-09-30T06:30:22;22.45;;;8.98;;
16737;SDS011;17906;47.684;10.806;2023-09-30T06:32:55;24.27;;;9.38;;
16737;SDS011;17906;47.684;10.806;2023-09-30T06:35:22;22.50;;;8.80;;
16737;SDS011;17906;47.684;10.806;2023-09-30T06:37:49;24.38;;;8.60;;
16737;SDS011;17906;47.684;10.806;2023-09-30T06:40:16;21.52;;;8.95;;
16737;SDS011;17906;47.684;10.806;2023-09-30T06:42:44;21.20;;;8.50;;
16737;SDS011;17906;47.684;10.806;2023-09-30T06:45:10;19.38;;;7.65;;
16737;SDS011;17906;47.684;10.806;2023-09-30T06:47:39;20.48;;;7.60;;
16737;SDS011;17906;47.684;10.806;2023-09-30T06:50:09;24.65;;;7.60;;
16737;SDS011;17906;47.684;10.806;2023-09-30T06:52:37;21.52;;;7.60;;
16737;SDS011;17906;47.684;10.806;2023-09-30T06:55:04;20.95;;;7.80;;
16737;SDS011;17906;47.684;10.806;2023-09-30T06:57:31;17.92;;;7.50;;
16737;SDS011;17906;47.684;10.806;2023-09-30T06:59:57;17.88;;;7.00;;
16737;SDS011;17906;47.684;10.806;2023-09-30T07:02:24;20.55;;;7.55;;
16737;SDS011;17906;47.684;10.806;2023-09-30T07:04:51;20.58;;;7.63;;
16737;SDS011;17906;47.684;10.806;2023-09-30T07:07:19;23.45;;;7.25;;
16737;SDS011;17906;47.684;10.806;2023-09-30T07:09:45;19.50;;;6.93;;
16737;SDS011;17906;47.684;10.806;2023-09-30T07:12:11;18.08;;;7.05;;
16737;SDS011;17906;47.684;10.806;2023-09-30T07:14:38;20.92;;;7.05;;
16737;SDS011;17906;47.684;10.806;2023-09-30T07:17:04;17.33;;;7.07;;
16737;SDS011;17906;47.684;10.806;2023-09-30T07:19:31;17.17;;;6.30;;
16737;SDS011;17906;47.684;10.806;2023-09-30T07:21:57;19.52;;;6.75;;
16737;SDS011;17906;47.684;10.806;2023-09-30T07:24:25;21.17;;;7.47;;
16737;SDS011;17906;47.684;10.806;2023-09-30T07:26:51;20.13;;;7.35;;
16737;SDS011;17906;47.684;10.806;2023-09-30T07:29:18;19.65;;;6.78;;
16737;SDS011;17906;47.684;10.806;2023-09-30T07:31:44;18.08;;;6.60;;
16737;SDS011;17906;47.684;10.806;2023-09-30T07:34:11;20.48;;;7.30;;
16737;SDS011;17906;47.684;10.806;2023-09-30T07:36:38;18.10;;;6.38;;
16737;SDS011;17906;47.684;10.806;2023-09-30T07:39:04;15.82;;;5.72;;
16737;SDS011;17906;47.684;10.806;2023-09-30T07:41:35;15.10;;;5.45;;
16737;SDS011;17906;47.684;10.806;2023-09-30T07:44:02;16.88;;;5.97;;
16737;SDS011;17906;47.684;10.806;2023-09-30T07:46:30;12.70;;;5.03;;
16737;SDS011;17906;47.684;10.806;2023-09-30T07:48:56;11.80;;;4.85;;
16737;SDS011;17906;47.684;10.806;2023-09-30T07:51:24;14.75;;;5.20;;
16737;SDS011;17906;47.684;10.806;2023-09-30T07:53:50;14.95;;;5.13;;
16737;SDS011;17906;47.684;10.806;2023-09-30T07:56:17;18.40;;;5.95;;
16737;SDS011;17906;47.684;10.806;2023-09-30T07:58:45;15.60;;;5.40;;
16737;SDS011;17906;47.684;10.806;2023-09-30T08:01:11;14.25;;;5.22;;
16737;SDS011;17906;47.684;10.806;2023-09-30T08:03:37;18.83;;;6.50;;
16737;SDS011;17906;47.684;10.806;2023-09-30T08:06:06;15.40;;;5.55;;
16737;SDS011;17906;47.684;10.806;2023-09-30T08:08:33;15.20;;;6.25;;
16737;SDS011;17906;47.684;10.806;2023-09-30T08:10:59;17.25;;;6.40;;
16737;SDS011;17906;47.684;10.806;2023-09-30T08:13:25;17.08;;;6.47;;
16737;SDS011;17906;47.684;10.806;2023-09-30T08:15:53;15.32;;;5.70;;
16737;SDS011;17906;47.684;10.806;2023-09-30T08:18:20;14.38;;;5.63;;
16737;SDS011;17906;47.684;10.806;2023-09-30T08:20:47;17.30;;;5.93;;
16737;SDS011;17906;47.684;10.806;2023-09-30T08:23:14;16.98;;;6.38;;
16737;SDS011;17906;47.684;10.806;2023-09-30T08:25:40;15.35;;;5.90;;
16737;SDS011;17906;47.684;10.806;2023-09-30T08:28:07;15.85;;;6.20;;
16737;SDS011;17906;47.684;10.806;2023-09-30T08:30:34;15.25;;;5.72;;
16737;SDS011;17906;47.684;10.806;2023-09-30T08:33:03;14.93;;;5.68;;
16737;SDS011;17906;47.684;10.806;2023-09-30T08:35:35;15.32;;;6.35;;
16737;SDS011;17906;47.684;10.806;2023-09-30T08:38:08;14.90;;;5.57;;
16737;SDS011;17906;47.684;10.806;2023-09-30T08:40:34;17.23;;;5.90;;
16737;SDS011;17906;47.684;10.806;2023-09-30T08:43:01;17.05;;;5.85;;
16737;SDS011;17906;47.684;10.806;2023-09-30T08:45:30;14.88;;;5.43;;
16737;SDS011;17906;47.684;10.806;2023-09-30T08:47:59;16.85;;;6.03;;
16737;SDS011;17906;47.684;10.806;2023-09-30T08:50:31;16.58;;;6.10;;
16737;SDS011;17906;47.684;10.806;2023-09-30T08:52:58;16.48;;;6.00;;
16737;SDS011;17906;47.684;10.806;2023-09-30T08:55:26;16.30;;;5.97;;
16737;SDS011;17906;47.684;10.806;2023-09-30T08:57:53;15.23;;;5.65;;
16737;SDS011;17906;47.684;10.806;2023-09-30T09:00:20;16.35;;;5.72;;
16737;SDS011;17906;47.684;10.806;2023-09-30T09:02:46;13.95;;;5.22;;
16737;SDS011;17906;47.684;10.806;2023-09-30T09:05:13;14.73;;;5.82;;
16737;SDS011;17906;47.684;10.806;2023-09-30T09:07:42;15.50;;;5.85;;
16737;SDS011;17906;47.684;10.806;2023-09-30T09:10:09;14.63;;;6.20;;
16737;SDS011;17906;47.684;10.806;2023-09-30T09:12:38;14.77;;;5.45;;
16737;SDS011;17906;47.684;10.806;2023-09-30T09:15:05;14.45;;;5.50;;
16737;SDS011;17906;47.684;10.806;2023-09-30T09:17:42;17.35;;;5.95;;
16737;SDS011;17906;47.684;10.806;2023-09-30T09:20:09;18.30;;;6.22;;
16737;SDS011;17906;47.684;10.806;2023-09-30T09:22:39;14.20;;;5.88;;
16737;SDS011;17906;47.684;10.806;2023-09-30T09:25:07;13.70;;;5.43;;
16737;SDS011;17906;47.684;10.806;2023-09-30T09:27:34;13.15;;;5.65;;
16737;SDS011;17906;47.684;10.806;2023-09-30T09:30:13;16.17;;;6.32;;
16737;SDS011;17906;47.684;10.806;2023-09-30T09:32:50;15.55;;;6.57;;
16737;SDS011;17906;47.684;10.806;2023-09-30T09:35:19;14.38;;;6.43;;
16737;SDS011;17906;47.684;10.806;2023-09-30T09:37:48;17.50;;;6.80;;
16737;SDS011;17906;47.684;10.806;2023-09-30T09:40:24;15.30;;;5.75;;
16737;SDS011;17906;47.684;10.806;2023-09-30T09:42:51;14.88;;;6.03;;
16737;SDS011;17906;47.684;10.806;2023-09-30T09:45:20;15.88;;;5.95;;
16737;SDS011;17906;47.684;10.806;2023-09-30T09:47:47;14.90;;;5.93;;
16737;SDS011;17906;47.684;10.806;2023-09-30T09:50:14;13.25;;;5.35;;
16737;SDS011;17906;47.684;10.806;2023-09-30T09:52:41;15.85;;;5.72;;
16737;SDS011;17906;47.684;10.806;2023-09-30T09:55:08;15.95;;;6.22;;
16737;SDS011;17906;47.684;10.806;2023-09-30T09:57:37;16.52;;;6.00;;
16737;SDS011;17906;47.684;10.806;2023-09-30T10:00:05;13.18;;;5.65;;
16737;SDS011;17906;47.684;10.806;2023-09-30T10:02:36;17.85;;;6.95;;
16737;SDS011;17906;47.684;10.806;2023-09-30T10:05:05;18.30;;;7.55;;
16737;SDS011;17906;47.684;10.806;2023-09-30T10:07:33;17.38;;;6.70;;
16737;SDS011;17906;47.684;10.806;2023-09-30T10:10:00;17.33;;;7.68;;
16737;SDS011;17906;47.684;10.806;2023-09-30T10:12:27;19.08;;;7.70;;
16737;SDS011;17906;47.684;10.806;2023-09-30T10:14:55;19.52;;;7.40;;
16737;SDS011;17906;47.684;10.806;2023-09-30T10:17:25;17.88;;;7.43;;
16737;SDS011;17906;47.684;10.806;2023-09-30T10:20:17;20.02;;;7.20;;
16737;SDS011;17906;47.684;10.806;2023-09-30T10:23:21;16.95;;;7.05;;
16737;SDS011;17906;47.684;10.806;2023-09-30T10:25:51;17.65;;;7.38;;
16737;SDS011;17906;47.684;10.806;2023-09-30T10:28:38;18.45;;;7.20;;
16737;SDS011;17906;47.684;10.806;2023-09-30T10:31:10;17.98;;;7.07;;
16737;SDS011;17906;47.684;10.806;2023-09-30T10:36:25;15.10;;;6.45;;
16737;SDS011;17906;47.684;10.806;2023-09-30T10:38:52;16.90;;;6.90;;
16737;SDS011;17906;47.684;10.806;2023-09-30T10:44:05;19.38;;;7.10;;
16737;SDS011;17906;47.684;10.806;2023-09-30T10:46:53;18.30;;;7.53;;
16737;SDS011;17906;47.684;10.806;2023-09-30T10:49:32;18.92;;;7.68;;
16737;SDS011;17906;47.684;10.806;2023-09-30T10:51:59;20.75;;;8.07;;
16737;SDS011;17906;47.684;10.806;2023-09-30T10:57:28;19.50;;;6.82;;
16737;SDS011;17906;47.684;10.806;2023-09-30T11:00:06;19.35;;;7.70;;
16737;SDS011;17906;47.684;10.806;2023-09-30T11:02:34;18.73;;;7.55;;
16737;SDS011;17906;47.684;10.806;2023-09-30T11:05:07;18.60;;;7.65;;
16737;SDS011;17906;47.684;10.806;2023-09-30T11:07:35;20.38;;;7.63;;
16737;SDS011;17906;47.684;10.806;2023-09-30T11:10:03;22.70;;;7.80;;
16737;SDS011;17906;47.684;10.806;2023-09-30T11:12:31;20.55;;;8.57;;
16737;SDS011;17906;47.684;10.806;2023-09-30T11:15:01;22.40;;;8.15;;
16737;SDS011;17906;47.684;10.806;2023-09-30T11:17:27;26.98;;;9.32;;
16737;SDS011;17906;47.684;10.806;2023-09-30T11:19:55;27.65;;;9.55;;
16737;SDS011;17906;47.684;10.806;2023-09-30T11:22:21;24.60;;;9.40;;
16737;SDS011;17906;47.684;10.806;2023-09-30T11:24:48;24.02;;;8.70;;
16737;SDS011;17906;47.684;10.806;2023-09-30T11:27:21;24.52;;;9.98;;
16737;SDS011;17906;47.684;10.806;2023-09-30T11:29:49;26.08;;;10.30;;
16737;SDS011;17906;47.684;10.806;2023-09-30T11:32:22;21.27;;;8.98;;
16737;SDS011;17906;47.684;10.806;2023-09-30T11:34:52;22.40;;;9.07;;
16737;SDS011;17906;47.684;10.806;2023-09-30T11:37:20;20.35;;;8.88;;
16737;SDS011;17906;47.684;10.806;2023-09-30T11:39:47;23.58;;;9.20;;
16737;SDS011;17906;47.684;10.806;2023-09-30T11:42:17;23.20;;;8.35;;
16737;SDS011;17906;47.684;10.806;2023-09-30T11:44:44;21.38;;;8.65;;
16737;SDS011;17906;47.684;10.806;2023-09-30T11:47:11;25.13;;;9.82;;
16737;SDS011;17906;47.684;10.806;2023-09-30T11:49:39;22.85;;;9.40;;
16737;SDS011;17906;47.684;10.806;2023-09-30T11:52:06;25.25;;;9.38;;
16737;SDS011;17906;47.684;10.806;2023-09-30T11:54:34;27.02;;;10.13;;
16737;SDS011;17906;47.684;10.806;2023-09-30T11:57:03;23.90;;;9.63;;
16737;SDS011;17906;47.684;10.806;2023-09-30T11:59:29;23.20;;;9.48;;
16737;SDS011;17906;47.684;10.806;2023-09-30T12:01:56;24.38;;;10.00;;
16737;SDS011;17906;47.684;10.806;2023-09-30T12:04:22;24.38;;;8.90;;
16737;SDS011;17906;47.684;10.806;2023-09-30T12:06:49;31.58;;;9.55;;
16737;SDS011;17906;47.684;10.806;2023-09-30T12:09:16;23.58;;;9.50;;
16737;SDS011;17906;47.684;10.806;2023-09-30T12:11:48;23.08;;;9.68;;
16737;SDS011;17906;47.684;10.806;2023-09-30T12:14:14;24.00;;;9.48;;
16737;SDS011;17906;47.684;10.806;2023-09-30T12:16:41;25.85;;;8.80;;
16737;SDS011;17906;47.684;10.806;2023-09-30T12:19:10;24.05;;;10.00;;
16737;SDS011;17906;47.684;10.806;2023-09-30T12:21:38;22.63;;;9.60;;
16737;SDS011;17906;47.684;10.806;2023-09-30T12:24:05;26.10;;;9.43;;
16737;SDS011;17906;47.684;10.806;2023-09-30T12:26:32;27.17;;;9.20;;
16737;SDS011;17906;47.684;10.806;2023-09-30T12:29:00;26.17;;;10.23;;
16737;SDS011;17906;47.684;10.806;2023-09-30T12:31:27;22.17;;;9.55;;
16737;SDS011;17906;47.684;10.806;2023-09-30T12:33:54;20.15;;;8.65;;
16737;SDS011;17906;47.684;10.806;2023-09-30T12:36:20;21.92;;;8.73;;
16737;SDS011;17906;47.684;10.806;2023-09-30T12:38:47;25.95;;;9.73;;
16737;SDS011;17906;47.684;10.806;2023-09-30T12:41:13;24.48;;;9.10;;
16737;SDS011;17906;47.684;10.806;2023-09-30T12:43:40;24.85;;;9.75;;
16737;SDS011;17906;47.684;10.806;2023-09-30T12:46:08;28.02;;;9.57;;
16737;SDS011;17906;47.684;10.806;2023-09-30T12:48:35;29.05;;;10.27;;
16737;SDS011;17906;47.684;10.806;2023-09-30T12:51:03;24.27;;;9.70;;
16737;SDS011;17906;47.684;10.806;2023-09-30T12:53:31;28.05;;;9.65;;
16737;SDS011;17906;47.684;10.806;2023-09-30T12:55:58;25.15;;;9.10;;
16737;SDS011;17906;47.684;10.806;2023-09-30T12:58:24;30.90;;;9.52;;
16737;SDS011;17906;47.684;10.806;2023-09-30T13:00:53;25.17;;;9.98;;
16737;SDS011;17906;47.684;10.806;2023-09-30T13:03:20;26.95;;;10.07;;
16737;SDS011;17906;47.684;10.806;2023-09-30T13:05:47;26.33;;;9.63;;
16737;SDS011;17906;47.684;10.806;2023-09-30T13:08:13;22.80;;;9.65;;
16737;SDS011;17906;47.684;10.806;2023-09-30T13:10:40;23.90;;;9.60;;
16737;SDS011;17906;47.684;10.806;2023-09-30T13:13:06;23.95;;;9.27;;
16737;SDS011;17906;47.684;10.806;2023-09-30T13:15:33;23.88;;;8.90;;
16737;SDS011;17906;47.684;10.806;2023-09-30T13:17:59;23.73;;;8.95;;
16737;SDS011;17906;47.684;10.806;2023-09-30T13:20:29;28.67;;;9.55;;
16737;SDS011;17906;47.684;10.806;2023-09-30T13:22:56;22.40;;;8.95;;
16737;SDS011;17906;47.684;10.806;2023-09-30T13:25:22;22.00;;;8.73;;
16737;SDS011;17906;47.684;10.806;2023-09-30T13:27:48;23.17;;;8.35;;
16737;SDS011;17906;47.684;10.806;2023-09-30T13:30:15;20.30;;;8.07;;
16737;SDS011;17906;47.684;10.806;2023-09-30T13:32:42;21.95;;;9.07;;
16737;SDS011;17906;47.684;10.806;2023-09-30T13:35:09;24.85;;;8.93;;
16737;SDS011;17906;47.684;10.806;2023-09-30T13:37:37;23.30;;;9.32;;
16737;SDS011;17906;47.684;10.806;2023-09-30T13:40:04;25.52;;;9.25;;
16737;SDS011;17906;47.684;10.806;2023-09-30T13:42:33;24.17;;;9.43;;
16737;SDS011;17906;47.684;10.806;2023-09-30T13:45:00;20.00;;;8.63;;
16737;SDS011;17906;47.684;10.806;2023-09-30T13:47:27;28.02;;;8.95;;
16737;SDS011;17906;47.684;10.806;2023-09-30T13:49:53;21.90;;;8.60;;
16737;SDS011;17906;47.684;10.806;2023-09-30T13:52:20;20.55;;;8.73;;
16737;SDS011;17906;47.684;10.806;2023-09-30T13:54:48;22.73;;;8.50;;
16737;SDS011;17906;47.684;10.806;2023-09-30T13:57:14;23.88;;;9.23;;
16737;SDS011;17906;47.684;10.806;2023-09-30T13:59:41;26.50;;;9.18;;
16737;SDS011;17906;47.684;10.806;2023-09-30T14:02:08;28.80;;;9.98;;
16737;SDS011;17906;47.684;10.806;2023-09-30T14:04:34;23.95;;;9.48;;
16737;SDS011;17906;47.684;10.806;2023-09-30T14:07:01;23.75;;;9.00;;
16737;SDS011;17906;47.684;10.806;2023-09-30T14:09:28;19.77;;;8.52;;
16737;SDS011;17906;47.684;10.806;2023-09-30T14:11:56;21.20;;;8.05;;
16737;SDS011;17906;47.684;10.806;2023-09-30T14:14:24;20.40;;;8.93;;
16737;SDS011;17906;47.684;10.806;2023-09-30T14:16:50;22.30;;;8.82;;
16737;SDS011;17906;47.684;10.806;2023-09-30T14:19:16;24.77;;;9.43;;
16737;SDS011;17906;47.684;10.806;2023-09-30T14:21:43;25.50;;;10.82;;
16737;SDS011;17906;47.684;10.806;2023-09-30T14:24:10;26.98;;;11.20;;
16737;SDS011;17906;47.684;10.806;2023-09-30T14:26:37;24.98;;;10.13;;
16737;SDS011;17906;47.684;10.806;2023-09-30T14:29:06;25.70;;;9.60;;